Jiexiu, China
Current Conditions -  °F | °C
As of 11:30 PM on Monday 24 Nov 2014 (Local Time) from ZBYN Reporting Station
Haze Haze  
Wind Chill: 32°   Ceiling: Unl
Heat Index: 36°   Visibility: 2.5mi
Dew Point: 25°   Wind: 4mph
Humidity: 65%   Direction: 120°ESE
Pressure: 30.21"   Gusts: NA
Location:  37.04°N, 111.9°E
Report Text: ZBYN 241530Z 12002MPS 4000 HZ NSC 02/M04 Q1023 NOSIG
Loading
Personal Weather Stations






























Interactive Weather Map New forecast layout! Learn more

10-Day Weather Forecast

Advertisements
Track Severe Weather on mobile